Time;durP1;ratioP1;P1;durP2;ratioP2;P2;SDS_P1;SDS_P2;PMS_P1;PMS_P2;Temp;Humidity;BMP_temperature;BMP_pressure;BME280_temperature;BME280_humidity;BME280_pressure;Samples;Min_cycle;Max_cycle;Signal;HPM_P1;HPM_P2
2023/08/09 00:01:03;;;;;;;6.67;6.17;;;16.60;99.90;;;;;;4992941;28;20580;-79
2023/08/09 00:03:31;;;;;;;7.00;6.50;;;16.60;99.90;;;;;;4987956;28;20264;-78
2023/08/09 00:05:57;;;;;;;7.00;6.50;;;16.60;99.90;;;;;;4984611;28;20283;-78
2023/08/09 00:08:24;;;;;;;6.97;6.47;;;16.60;99.90;;;;;;4980861;28;20209;-79
2023/08/09 00:10:51;;;;;;;7.23;6.63;;;16.50;99.90;;;;;;4993321;28;20205;-78
2023/08/09 00:13:18;;;;;;;7.00;6.50;;;16.50;99.90;;;;;;4982039;28;20202;-79
2023/08/09 00:15:45;;;;;;;7.40;6.90;;;16.40;99.90;;;;;;4978293;28;20198;-78
2023/08/09 00:18:13;;;;;;;7.33;6.73;;;16.40;99.90;;;;;;4979867;28;20229;-78
2023/08/09 00:20:40;;;;;;;7.60;7.00;;;16.40;99.90;;;;;;4974683;28;20208;-79
2023/08/09 00:23:07;;;;;;;7.47;6.93;;;16.40;99.90;;;;;;4993253;28;20259;-78
2023/08/09 00:25:34;;;;;;;7.47;6.93;;;16.40;99.90;;;;;;4988983;28;20216;-78
2023/08/09 00:28:02;;;;;;;6.90;6.40;;;16.40;99.90;;;;;;4978742;28;20297;-79
2023/08/09 00:30:28;;;;;;;7.13;6.70;;;16.30;99.90;;;;;;4974175;28;20234;-79
2023/08/09 00:32:56;;;;;;;7.27;6.77;;;16.30;99.90;;;;;;4990884;28;20190;-78
2023/08/09 00:35:24;;;;;;;6.93;6.50;;;16.30;99.90;;;;;;4993147;28;20193;-79
2023/08/09 00:37:51;;;;;;;7.47;6.97;;;16.30;99.90;;;;;;4978978;28;20205;-78
2023/08/09 00:40:18;;;;;;;7.37;6.80;;;16.30;99.90;;;;;;4986980;28;20584;-78
2023/08/09 00:42:45;;;;;;;6.87;6.40;;;16.20;99.90;;;;;;4993371;28;20217;-79
2023/08/09 00:45:12;;;;;;;6.80;6.40;;;16.30;99.90;;;;;;4993320;28;20214;-79
2023/08/09 00:47:40;;;;;;;7.23;6.70;;;16.30;99.90;;;;;;4983586;28;20268;-79
2023/08/09 00:50:07;;;;;;;7.07;6.57;;;16.30;99.90;;;;;;4991268;28;20230;-78
2023/08/09 00:52:36;;;;;;;7.03;6.60;;;16.20;99.90;;;;;;4988830;28;20209;-78
2023/08/09 00:55:03;;;;;;;7.17;6.67;;;16.20;99.90;;;;;;4991767;28;20210;-78
2023/08/09 00:57:31;;;;;;;6.83;6.40;;;16.20;99.90;;;;;;4973793;28;20198;-78
2023/08/09 00:59:58;;;;;;;6.90;6.50;;;16.20;99.90;;;;;;4975571;28;20642;-79
2023/08/09 01:02:25;;;;;;;6.77;6.37;;;16.10;99.90;;;;;;4996202;28;20213;-79
2023/08/09 01:04:52;;;;;;;6.77;6.37;;;16.10;99.90;;;;;;4982788;28;20540;-79
2023/08/09 01:07:33;;;;;;;7.10;6.60;;;16.10;99.90;;;;;;4974142;28;20208;-79
2023/08/09 01:10:12;;;;;;;6.63;6.23;;;16.10;99.90;;;;;;4988955;28;20283;-79
2023/08/09 01:12:41;;;;;;;6.90;6.40;;;16.10;99.90;;;;;;4974314;28;20231;-79
2023/08/09 01:15:12;;;;;;;7.07;6.60;;;16.10;99.90;;;;;;4980878;28;20204;-79
2023/08/09 01:17:41;;;;;;;7.47;6.97;;;16.10;99.90;;;;;;4975468;28;20208;-78
2023/08/09 01:20:11;;;;;;;7.53;7.00;;;16.10;99.90;;;;;;4992879;28;20229;-79
2023/08/09 01:22:45;;;;;;;7.30;6.87;;;16.10;99.90;;;;;;4993899;28;20216;-78
2023/08/09 01:25:14;;;;;;;7.47;6.97;;;16.00;99.90;;;;;;4974297;28;20613;-78
2023/08/09 01:27:41;;;;;;;7.80;7.20;;;16.00;99.90;;;;;;4982179;28;20205;-79
2023/08/09 01:30:10;;;;;;;7.50;6.90;;;16.00;99.90;;;;;;4974421;28;20225;-78
2023/08/09 01:32:38;;;;;;;7.43;6.93;;;16.00;99.90;;;;;;4978299;28;20222;-78
2023/08/09 01:35:07;;;;;;;7.40;6.90;;;16.00;99.90;;;;;;4983000;28;20226;-78
2023/08/09 01:37:38;;;;;;;7.23;6.80;;;16.00;99.90;;;;;;4981798;28;20229;-79
2023/08/09 01:40:09;;;;;;;7.63;7.03;;;16.00;99.90;;;;;;4992983;28;20296;-79
2023/08/09 01:42:39;;;;;;;7.93;7.33;;;16.00;99.90;;;;;;4980321;28;20202;-79
2023/08/09 01:45:07;;;;;;;7.87;7.27;;;16.00;99.90;;;;;;4992129;28;20638;-79
2023/08/09 01:47:35;;;;;;;7.50;7.00;;;15.90;99.90;;;;;;4996264;28;20208;-79
2023/08/09 01:50:02;;;;;;;7.40;7.00;;;15.90;99.90;;;;;;4998156;28;20240;-80
2023/08/09 01:52:29;;;;;;;8.00;7.50;;;15.90;99.90;;;;;;4982010;28;20209;-79
2023/08/09 01:54:56;;;;;;;8.27;7.67;;;15.90;99.90;;;;;;4980193;28;20201;-79
2023/08/09 01:57:23;;;;;;;8.03;7.43;;;15.80;99.90;;;;;;4974672;28;20204;-78
2023/08/09 01:59:51;;;;;;;8.47;7.70;;;15.80;99.90;;;;;;4989482;28;20225;-79
2023/08/09 02:02:18;;;;;;;7.70;7.20;;;15.80;99.90;;;;;;4993212;28;20264;-79
2023/08/09 02:04:45;;;;;;;8.33;7.73;;;15.80;99.90;;;;;;5005351;28;20207;-78
2023/08/09 02:07:11;;;;;;;7.90;7.40;;;15.80;99.90;;;;;;4983610;28;20257;-79
2023/08/09 02:09:38;;;;;;;7.90;7.30;;;15.70;99.90;;;;;;4974158;28;20239;-78
2023/08/09 02:12:07;;;;;;;8.60;7.90;;;15.80;99.90;;;;;;4992325;28;20208;-79
2023/08/09 02:14:34;;;;;;;7.77;7.27;;;15.80;99.90;;;;;;4996038;28;20205;-79
2023/08/09 02:17:02;;;;;;;8.10;7.50;;;15.80;99.90;;;;;;4975786;28;20190;-79
2023/08/09 02:19:31;;;;;;;8.20;7.60;;;15.80;99.90;;;;;;4997055;28;20632;-78
2023/08/09 02:21:57;;;;;;;8.40;7.80;;;15.80;99.90;;;;;;4983300;28;20215;-78
2023/08/09 02:24:24;;;;;;;7.77;7.17;;;15.80;99.90;;;;;;4974524;28;20204;-79
2023/08/09 02:26:51;;;;;;;7.73;7.23;;;15.80;99.90;;;;;;4989877;28;20214;-79
2023/08/09 02:29:18;;;;;;;8.37;7.77;;;15.80;99.90;;;;;;4990928;28;20263;-77
2023/08/09 02:31:45;;;;;;;7.93;7.43;;;15.80;99.90;;;;;;4997487;28;20224;-79
2023/08/09 02:34:14;;;;;;;8.30;7.70;;;15.80;99.90;;;;;;4984928;28;20275;-78
2023/08/09 02:36:41;;;;;;;8.20;7.70;;;15.80;99.90;;;;;;4973735;28;20203;-79
2023/08/09 02:39:08;;;;;;;7.77;7.27;;;15.80;99.90;;;;;;4990813;28;20224;-78
2023/08/09 02:41:35;;;;;;;7.80;7.30;;;15.80;99.90;;;;;;4981011;28;20201;-79
2023/08/09 02:44:02;;;;;;;7.60;7.10;;;15.80;99.90;;;;;;4988977;28;20587;-79
2023/08/09 02:46:29;;;;;;;7.80;7.30;;;15.90;99.90;;;;;;4986568;28;20707;-79
2023/08/09 02:48:56;;;;;;;8.10;7.60;;;15.80;99.90;;;;;;4992748;28;20228;-78
2023/08/09 02:51:24;;;;;;;8.27;7.67;;;15.80;99.90;;;;;;4978575;28;20669;-81
2023/08/09 02:54:02;;;;;;;8.17;7.67;;;15.80;99.90;;;;;;4991664;28;20579;-82
2023/08/09 02:56:29;;;;;;;7.77;7.20;;;15.90;99.90;;;;;;4983131;28;20231;-79
2023/08/09 02:58:57;;;;;;;7.60;7.00;;;15.80;99.90;;;;;;4987474;28;20220;-80
2023/08/09 03:01:24;;;;;;;7.53;6.93;;;15.80;99.90;;;;;;4996160;28;20721;-82
2023/08/09 03:03:54;;;;;;;7.70;7.20;;;15.80;99.90;;;;;;5000977;28;20212;-79
2023/08/09 03:06:22;;;;;;;7.90;7.30;;;15.90;99.90;;;;;;4981575;28;20215;-81
2023/08/09 03:08:51;;;;;;;7.70;7.10;;;15.90;99.90;;;;;;4984324;28;20275;-81
2023/08/09 03:11:19;;;;;;;7.97;7.47;;;15.80;99.90;;;;;;4985431;28;20650;-81
2023/08/09 03:13:46;;;;;;;7.80;7.30;;;15.80;99.90;;;;;;4982863;28;20201;-83
2023/08/09 03:16:13;;;;;;;7.80;7.20;;;15.80;99.90;;;;;;4985875;28;20201;-82
2023/08/09 03:18:40;;;;;;;7.60;7.10;;;15.80;99.90;;;;;;4982263;28;20229;-81
2023/08/09 03:21:07;;;;;;;7.77;7.27;;;15.80;99.90;;;;;;4994273;28;20668;-80
2023/08/09 03:23:34;;;;;;;7.90;7.30;;;15.80;99.90;;;;;;4981056;28;20205;-80
2023/08/09 03:26:02;;;;;;;7.27;6.77;;;15.80;99.90;;;;;;4988044;28;20242;-79
2023/08/09 03:28:30;;;;;;;7.17;6.77;;;15.80;99.90;;;;;;4986392;28;20220;-80
2023/08/09 03:30:57;;;;;;;7.40;6.90;;;15.80;99.90;;;;;;4999773;28;20288;-80
2023/08/09 03:33:26;;;;;;;7.23;6.73;;;15.80;99.90;;;;;;4997474;28;20288;-81
2023/08/09 03:35:54;;;;;;;6.73;6.30;;;15.80;99.90;;;;;;5002335;28;20235;-81
2023/08/09 03:38:21;;;;;;;7.57;6.97;;;15.70;99.90;;;;;;4989738;28;20254;-81
2023/08/09 03:40:47;;;;;;;7.10;6.60;;;15.70;99.90;;;;;;4983091;28;20196;-81
2023/08/09 03:43:16;;;;;;;7.20;6.70;;;15.70;99.90;;;;;;4994635;28;20236;-81
2023/08/09 03:45:43;;;;;;;7.40;6.90;;;15.70;99.90;;;;;;5061084;22;20249;-81
2023/08/09 03:48:10;;;;;;;7.00;6.50;;;15.70;99.90;;;;;;5007074;28;20781;-82
2023/08/09 03:50:37;;;;;;;7.50;7.00;;;15.70;99.90;;;;;;4999963;28;20234;-81
2023/08/09 03:53:04;;;;;;;7.63;7.13;;;15.70;99.90;;;;;;4997308;28;20208;-81
2023/08/09 03:55:31;;;;;;;7.37;6.83;;;15.70;99.90;;;;;;5009163;28;20209;-81
2023/08/09 03:57:58;;;;;;;7.50;6.90;;;15.70;99.90;;;;;;5001147;28;20192;-82
2023/08/09 04:00:26;;;;;;;8.03;7.40;;;15.70;99.90;;;;;;4997686;28;20212;-81
2023/08/09 04:02:54;;;;;;;7.07;6.57;;;15.70;99.90;;;;;;5006473;28;20238;-81
2023/08/09 04:05:21;;;;;;;7.20;6.60;;;15.70;99.90;;;;;;5016950;28;20202;-83
2023/08/09 04:07:48;;;;;;;7.70;7.20;;;15.70;99.90;;;;;;5002534;28;20236;-78
2023/08/09 04:10:15;;;;;;;7.20;6.70;;;15.60;99.90;;;;;;4999131;28;20679;-82
2023/08/09 04:12:43;;;;;;;7.30;6.70;;;15.70;99.90;;;;;;5023316;28;20203;-82
2023/08/09 04:15:10;;;;;;;7.13;6.63;;;15.70;99.90;;;;;;4999549;28;20193;-82
2023/08/09 04:17:38;;;;;;;7.27;6.77;;;15.60;99.90;;;;;;5004995;28;20216;-82
2023/08/09 04:20:11;;;;;;;7.03;6.53;;;15.70;99.90;;;;;;4999475;28;20231;-82
2023/08/09 04:22:38;;;;;;;7.07;6.57;;;15.70;99.90;;;;;;4998470;28;20225;-82
2023/08/09 04:25:06;;;;;;;7.60;7.10;;;15.70;99.90;;;;;;5006491;28;20252;-81
2023/08/09 04:27:33;;;;;;;7.40;6.90;;;15.70;99.90;;;;;;5005840;28;20569;-82
2023/08/09 04:30:03;;;;;;;7.50;6.93;;;15.70;99.90;;;;;;5008840;28;20195;-82
2023/08/09 04:32:29;;;;;;;7.53;7.00;;;15.70;99.90;;;;;;5008296;28;20199;-82
2023/08/09 04:34:58;;;;;;;7.37;6.87;;;15.70;99.90;;;;;;5003869;28;20250;-82
2023/08/09 04:37:24;;;;;;;7.73;7.23;;;15.70;99.90;;;;;;5004383;28;20234;-83
2023/08/09 04:39:53;;;;;;;7.77;7.17;;;15.70;99.90;;;;;;5003111;28;20203;-82
2023/08/09 04:42:20;;;;;;;7.70;7.20;;;15.70;99.90;;;;;;5005440;28;20254;-82
2023/08/09 04:44:47;;;;;;;7.93;7.43;;;15.70;99.90;;;;;;5003842;28;20204;-83
2023/08/09 04:47:14;;;;;;;7.80;7.20;;;15.80;99.90;;;;;;5006384;28;20242;-81
2023/08/09 04:49:41;;;;;;;7.83;7.33;;;15.80;99.90;;;;;;5017871;28;20202;-82
2023/08/09 04:52:10;;;;;;;7.87;7.37;;;15.80;99.90;;;;;;5004970;28;20665;-82
2023/08/09 04:54:36;;;;;;;8.50;7.90;;;15.80;99.90;;;;;;4999123;28;20272;-82
2023/08/09 04:57:03;;;;;;;8.00;7.40;;;15.80;99.90;;;;;;5002292;28;20264;-81
2023/08/09 04:59:31;;;;;;;7.80;7.30;;;15.80;99.90;;;;;;5009474;28;20193;-83
2023/08/09 05:01:57;;;;;;;8.20;7.40;;;15.90;99.90;;;;;;4998661;28;20257;-83
2023/08/09 05:04:24;;;;;;;8.40;7.80;;;15.90;99.90;;;;;;4999543;28;20261;-83
2023/08/09 05:06:51;;;;;;;8.07;7.47;;;15.80;99.90;;;;;;5009179;28;20568;-79
2023/08/09 05:09:20;;;;;;;8.20;7.60;;;15.80;99.90;;;;;;5003289;28;20202;-80
2023/08/09 05:11:46;;;;;;;7.73;7.23;;;15.80;99.90;;;;;;4999837;28;20203;-82
2023/08/09 05:14:13;;;;;;;7.83;7.33;;;15.80;99.90;;;;;;4998650;28;20209;-81
2023/08/09 05:16:40;;;;;;;8.13;7.63;;;15.80;99.90;;;;;;5012687;28;20226;-80
2023/08/09 05:19:07;;;;;;;8.03;7.53;;;15.80;99.90;;;;;;5008764;28;20199;-83
2023/08/09 05:21:33;;;;;;;9.20;8.60;;;15.80;99.90;;;;;;5010053;28;20197;-83
2023/08/09 05:24:00;;;;;;;8.00;7.50;;;15.80;99.90;;;;;;5006680;28;20193;-81
2023/08/09 05:26:28;;;;;;;8.40;7.80;;;15.80;99.90;;;;;;5013858;28;20263;-85
2023/08/09 05:28:55;;;;;;;8.60;8.00;;;15.90;99.90;;;;;;5015750;28;20320;-81
2023/08/09 05:31:22;;;;;;;8.77;8.17;;;15.90;99.90;;;;;;4997861;28;20256;-81
2023/08/09 05:33:49;;;;;;;9.07;8.37;;;16.00;99.90;;;;;;5001194;28;20208;-81
2023/08/09 05:36:15;;;;;;;9.97;8.97;;;16.00;99.90;;;;;;4996842;28;20236;-80
2023/08/09 05:38:42;;;;;;;9.13;8.53;;;16.00;99.90;;;;;;5014600;28;20231;-81
2023/08/09 05:41:09;;;;;;;9.67;8.97;;;16.00;99.90;;;;;;5015973;28;20205;-80
2023/08/09 05:43:37;;;;;;;9.07;8.47;;;16.00;99.90;;;;;;5003698;28;20260;-84
2023/08/09 05:46:04;;;;;;;9.20;8.60;;;16.00;99.90;;;;;;5011677;28;20233;-77
2023/08/09 05:48:31;;;;;;;9.17;8.47;;;16.10;99.90;;;;;;5004104;28;20794;-78
2023/08/09 05:50:58;;;;;;;9.10;8.50;;;16.10;99.90;;;;;;5001283;28;20193;-78
2023/08/09 05:53:24;;;;;;;9.17;8.57;;;16.10;99.90;;;;;;4994509;28;20225;-77
2023/08/09 05:55:52;;;;;;;9.53;8.83;;;16.10;99.90;;;;;;4998631;28;20224;-78
2023/08/09 05:58:20;;;;;;;8.87;8.27;;;16.20;99.90;;;;;;5002528;28;20200;-78
2023/08/09 06:00:49;;;;;;;9.00;8.30;;;16.20;99.90;;;;;;5000128;28;20197;-78
2023/08/09 06:03:16;;;;;;;8.90;8.30;;;16.20;99.90;;;;;;4997082;28;20211;-78
2023/08/09 06:05:43;;;;;;;9.10;8.50;;;16.30;99.90;;;;;;5009392;28;20197;-79
2023/08/09 06:08:09;;;;;;;8.90;8.30;;;16.30;99.90;;;;;;5002878;28;20208;-78
2023/08/09 06:10:36;;;;;;;9.47;8.83;;;16.40;99.90;;;;;;4997379;28;20706;-79
2023/08/09 06:13:05;;;;;;;3.53;3.23;;;16.40;99.90;;;;;;5001083;28;20297;-79
2023/08/09 06:15:31;;;;;;;3.40;3.10;;;16.50;99.90;;;;;;4998792;28;20271;-79
2023/08/09 06:18:00;;;;;;;3.07;2.83;;;16.60;99.90;;;;;;5003108;28;20197;-79
2023/08/09 06:20:27;;;;;;;3.30;3.00;;;16.70;99.90;;;;;;5002567;28;20215;-79
2023/08/09 06:22:54;;;;;;;2.83;2.63;;;16.80;99.90;;;;;;5001864;28;20216;-79
2023/08/09 06:25:21;;;;;;;2.93;2.60;;;17.00;99.90;;;;;;5004063;28;20196;-79
2023/08/09 06:27:48;;;;;;;3.00;2.80;;;17.10;99.90;;;;;;4994192;28;20278;-79
2023/08/09 06:30:14;;;;;;;3.53;2.90;;;17.10;99.90;;;;;;4999998;28;20184;-79
2023/08/09 06:32:41;;;;;;;5.53;5.13;;;17.20;99.90;;;;;;5007293;28;20694;-79
2023/08/09 06:35:10;;;;;;;5.57;5.17;;;17.30;99.90;;;;;;5011849;28;20783;-79
2023/08/09 06:37:37;;;;;;;6.50;6.00;;;17.30;99.90;;;;;;5011827;28;20661;-79
2023/08/09 06:40:07;;;;;;;4.43;4.13;;;17.40;99.90;;;;;;5001324;28;20197;-79
2023/08/09 06:42:34;;;;;;;4.37;4.07;;;17.40;99.90;;;;;;5011223;28;20216;-78
2023/08/09 06:45:03;;;;;;;2.93;2.73;;;17.40;99.90;;;;;;5012118;28;20230;-79
2023/08/09 06:47:30;;;;;;;5.60;5.20;;;17.50;99.90;;;;;;5007212;28;20649;-79
2023/08/09 06:49:57;;;;;;;6.03;5.63;;;17.50;99.90;;;;;;5004955;28;20219;-79
2023/08/09 06:52:25;;;;;;;6.87;6.27;;;17.50;99.90;;;;;;5009345;28;20456;-79
2023/08/09 06:54:51;;;;;;;7.00;6.60;;;17.60;99.90;;;;;;5003419;28;20229;-79
2023/08/09 06:57:19;;;;;;;6.77;6.37;;;17.60;99.90;;;;;;5007167;28;20236;-79
2023/08/09 06:59:47;;;;;;;7.40;6.90;;;17.70;99.90;;;;;;5004590;28;20588;-79
2023/08/09 07:02:14;;;;;;;4.07;3.80;;;17.80;99.90;;;;;;5007182;28;20200;-79
2023/08/09 07:04:41;;;;;;;2.80;2.60;;;17.80;99.90;;;;;;5012791;28;20201;-79
2023/08/09 07:07:08;;;;;;;6.97;6.47;;;17.80;99.90;;;;;;5002555;28;20226;-79
2023/08/09 07:09:36;;;;;;;6.20;5.80;;;17.80;99.90;;;;;;5006171;28;20210;-79
2023/08/09 07:12:03;;;;;;;7.87;7.37;;;17.90;99.90;;;;;;5008543;28;20209;-79
2023/08/09 07:14:30;;;;;;;5.50;2.60;;;18.00;99.90;;;;;;5007744;28;20206;-79
2023/08/09 07:16:56;;;;;;;6.43;4.00;;;18.10;99.90;;;;;;5002459;28;20226;-79
2023/08/09 07:19:23;;;;;;;2.63;2.43;;;18.20;99.90;;;;;;5013933;28;20221;-79
2023/08/09 07:21:50;;;;;;;7.10;6.60;;;18.40;99.90;;;;;;5003943;28;20556;-79
2023/08/09 07:24:17;;;;;;;3.30;2.30;;;18.50;99.90;;;;;;5006652;28;20216;-79
2023/08/09 07:26:45;;;;;;;2.50;2.30;;;18.50;99.90;;;;;;5000296;28;20214;-78
2023/08/09 07:29:12;;;;;;;2.93;2.67;;;18.50;99.90;;;;;;5006616;28;20228;-79
2023/08/09 07:31:39;;;;;;;3.47;3.27;;;18.60;99.90;;;;;;5013528;28;20596;-79
2023/08/09 07:34:06;;;;;;;5.57;5.23;;;18.60;99.90;;;;;;5004720;28;20745;-79
2023/08/09 07:36:32;;;;;;;4.30;4.00;;;18.70;99.90;;;;;;5011978;28;20746;-79
2023/08/09 07:38:59;;;;;;;3.67;2.40;;;18.80;99.90;;;;;;5003536;28;20223;-79
2023/08/09 07:41:26;;;;;;;2.47;2.27;;;18.70;99.90;;;;;;5011475;28;20242;-79
2023/08/09 07:43:54;;;;;;;2.73;2.40;;;18.70;99.90;;;;;;5010088;28;20203;-79
2023/08/09 07:46:21;;;;;;;3.00;2.60;;;18.60;99.90;;;;;;5000933;28;20239;-79
2023/08/09 07:48:50;;;;;;;3.83;3.57;;;18.60;99.90;;;;;;5006326;28;20227;-79
2023/08/09 07:51:16;;;;;;;5.53;5.13;;;18.50;99.90;;;;;;5006787;28;20295;-79
2023/08/09 07:53:44;;;;;;;7.30;6.80;;;18.50;99.90;;;;;;5003614;28;20203;-79
2023/08/09 07:56:10;;;;;;;7.10;6.70;;;18.50;99.90;;;;;;5007251;28;20230;-82
2023/08/09 07:58:37;;;;;;;7.00;6.60;;;18.60;99.90;;;;;;5007123;28;20196;-82
2023/08/09 08:01:05;;;;;;;6.90;6.50;;;18.70;99.90;;;;;;5014466;28;20326;-81
2023/08/09 08:03:32;;;;;;;7.37;6.87;;;18.70;99.90;;;;;;5007634;28;20203;-83
2023/08/09 08:05:59;;;;;;;6.50;6.10;;;18.70;99.90;;;;;;5007867;28;20227;-83
2023/08/09 08:08:27;;;;;;;6.53;6.13;;;18.80;99.90;;;;;;5000002;28;20274;-84
2023/08/09 08:10:54;;;;;;;5.90;5.50;;;18.70;99.90;;;;;;5011283;28;20204;-82
2023/08/09 08:13:21;;;;;;;6.10;5.70;;;18.70;99.90;;;;;;4992782;28;20216;-81
2023/08/09 08:15:48;;;;;;;6.53;6.13;;;18.70;99.90;;;;;;4998298;28;20576;-78
2023/08/09 08:18:16;;;;;;;5.73;5.33;;;18.70;99.90;;;;;;5008342;28;20195;-78
2023/08/09 08:20:43;;;;;;;5.10;4.63;;;18.90;99.90;;;;;;5001692;28;20196;-79
2023/08/09 08:23:10;;;;;;;5.30;4.80;;;19.10;99.90;;;;;;5001007;28;21013;-79
2023/08/09 08:25:37;;;;;;;5.07;4.77;;;19.20;99.90;;;;;;5005821;28;20589;-77
2023/08/09 08:28:04;;;;;;;5.43;5.03;;;19.40;99.90;;;;;;5005872;28;20231;-78
2023/08/09 08:30:31;;;;;;;7.03;6.53;;;19.60;99.90;;;;;;5005241;28;20592;-79
2023/08/09 08:32:58;;;;;;;6.27;5.83;;;20.00;99.90;;;;;;5003286;28;20189;-83
2023/08/09 08:35:33;;;;;;;6.90;6.40;;;20.40;99.90;;;;;;5007320;28;20259;-82
2023/08/09 08:38:00;;;;;;;6.50;6.10;;;20.70;99.90;;;;;;5012061;28;20667;-78
2023/08/09 08:40:27;;;;;;;4.33;3.60;;;21.10;99.90;;;;;;5010396;28;20197;-78
2023/08/09 08:42:54;;;;;;;3.87;3.57;;;21.20;99.90;;;;;;5005851;28;20203;-78
2023/08/09 08:45:21;;;;;;;5.40;5.00;;;21.30;99.90;;;;;;5013301;28;20196;-79
2023/08/09 08:47:48;;;;;;;6.77;6.27;;;21.50;99.90;;;;;;5015983;28;20282;-78
2023/08/09 08:50:16;;;;;;;5.00;4.67;;;21.80;99.90;;;;;;5013071;28;20215;-79
2023/08/09 08:52:47;;;;;;;5.60;5.00;;;22.00;99.90;;;;;;5000786;28;20197;-78
2023/08/09 08:55:14;;;;;;;6.17;5.67;;;22.10;99.90;;;;;;5001354;28;20209;-78
2023/08/09 08:57:42;;;;;;;6.10;5.70;;;22.10;99.90;;;;;;5013511;28;20262;-78
2023/08/09 09:00:15;;;;;;;6.70;6.20;;;22.20;99.90;;;;;;5012971;28;20664;-79
2023/08/09 09:02:43;;;;;;;7.23;6.63;;;22.40;99.90;;;;;;5012518;28;20212;-78
2023/08/09 09:05:11;;;;;;;7.40;6.80;;;22.40;99.90;;;;;;5010367;28;20231;-79
2023/08/09 09:07:38;;;;;;;7.53;6.90;;;22.40;99.90;;;;;;5004195;28;20220;-79
2023/08/09 09:10:09;;;;;;;7.80;7.10;;;22.20;99.90;;;;;;5012061;28;20270;-83
2023/08/09 09:12:36;;;;;;;7.87;7.37;;;22.10;99.90;;;;;;5005330;28;20295;-82
2023/08/09 09:15:04;;;;;;;7.73;7.23;;;22.10;99.90;;;;;;5011947;28;20726;-84
2023/08/09 09:17:31;;;;;;;7.93;7.30;;;22.00;99.90;;;;;;5003693;28;20271;-84
2023/08/09 09:19:59;;;;;;;6.27;5.87;;;22.20;99.90;;;;;;5001974;28;20664;-84
2023/08/09 09:22:27;;;;;;;3.43;2.80;;;22.20;99.90;;;;;;5008056;28;20800;-82
2023/08/09 09:24:58;;;;;;;4.53;2.53;;;22.30;99.90;;;;;;4998714;28;20290;-84
2023/08/09 09:27:31;;;;;;;4.03;3.73;;;22.50;99.90;;;;;;5013561;28;20220;-78
2023/08/09 09:30:04;;;;;;;2.83;2.33;;;22.50;99.90;;;;;;5010513;28;20212;-78
2023/08/09 09:32:33;;;;;;;3.03;2.80;;;22.60;99.90;;;;;;4995271;28;20201;-79
2023/08/09 09:34:59;;;;;;;4.10;2.70;;;22.80;99.90;;;;;;5012400;28;20340;-82
2023/08/09 09:37:27;;;;;;;4.03;3.73;;;22.90;99.90;;;;;;5009133;28;20224;-79
2023/08/09 09:39:55;;;;;;;7.33;6.83;;;23.00;99.90;;;;;;4998385;28;20662;-79
2023/08/09 09:42:32;;;;;;;5.57;2.83;;;23.00;99.90;;;;;;5010147;28;20201;-78
2023/08/09 09:45:07;;;;;;;3.53;2.60;;;22.90;99.90;;;;;;5009779;28;20200;-79
2023/08/09 09:47:38;;;;;;;4.97;4.67;;;23.00;99.90;;;;;;5006945;28;20220;-79
2023/08/09 09:50:07;;;;;;;6.90;6.30;;;22.80;99.90;;;;;;5007381;28;20193;-79
2023/08/09 09:52:35;;;;;;;2.87;2.50;;;22.70;99.90;;;;;;5004685;28;20299;-79
2023/08/09 09:55:03;;;;;;;6.20;3.23;;;22.70;99.90;;;;;;5009946;28;20205;-79
2023/08/09 09:57:31;;;;;;;3.27;2.60;;;22.80;99.90;;;;;;5001012;28;20225;-80
2023/08/09 09:59:59;;;;;;;2.53;2.33;;;23.00;99.90;;;;;;5013218;28;20198;-80
2023/08/09 10:02:31;;;;;;;3.57;2.80;;;23.00;99.90;;;;;;5006177;28;20201;-80
2023/08/09 10:05:00;;;;;;;3.20;2.60;;;22.90;99.90;;;;;;5003472;28;20731;-80
2023/08/09 10:07:30;;;;;;;3.50;3.20;;;23.00;99.90;;;;;;5010920;28;20383;-81
2023/08/09 10:10:01;;;;;;;5.53;5.03;;;23.00;99.90;;;;;;5007965;28;20216;-80
2023/08/09 10:12:28;;;;;;;4.67;4.27;;;22.80;99.90;;;;;;4998399;28;20204;-81
2023/08/09 10:14:57;;;;;;;3.63;2.70;;;22.80;99.90;;;;;;5006214;28;20205;-82
2023/08/09 10:17:27;;;;;;;5.63;4.33;;;22.70;99.90;;;;;;5007786;28;20216;-81
2023/08/09 10:19:55;;;;;;;3.97;3.00;;;22.50;99.90;;;;;;4997854;28;20212;-80
2023/08/09 10:22:22;;;;;;;2.80;2.50;;;22.30;99.90;;;;;;4997968;28;20193;-80
2023/08/09 10:24:51;;;;;;;4.10;3.70;;;22.30;99.90;;;;;;5013460;28;20626;-80
2023/08/09 10:27:50;;;;;;;4.30;3.90;;;22.60;99.90;;;;;;5007628;28;20224;-81
2023/08/09 10:30:19;;;;;;;4.90;3.80;;;22.80;99.90;;;;;;5008752;28;20197;-79
2023/08/09 10:32:53;;;;;;;4.23;3.83;;;22.90;99.90;;;;;;5002598;28;20199;-79
2023/08/09 10:35:21;;;;;;;4.87;3.47;;;23.20;99.90;;;;;;4998263;28;20196;-79
2023/08/09 10:37:49;;;;;;;3.67;3.33;;;23.20;99.90;;;;;;4998146;28;20601;-79
2023/08/09 10:40:21;;;;;;;3.13;2.83;;;23.50;99.90;;;;;;5009686;28;20200;-79
2023/08/09 10:42:48;;;;;;;3.17;2.80;;;23.50;99.90;;;;;;5002006;28;20232;-80
2023/08/09 10:45:15;;;;;;;5.53;5.03;;;23.50;99.90;;;;;;5013630;28;20196;-79
2023/08/09 10:47:44;;;;;;;4.57;2.77;;;23.70;99.90;;;;;;5002579;28;20228;-79
2023/08/09 10:50:15;;;;;;;7.20;6.60;;;23.90;99.90;;;;;;5005646;28;20228;-80
2023/08/09 10:52:47;;;;;;;6.87;6.27;;;24.00;99.90;;;;;;5006780;28;20193;-79
2023/08/09 10:55:28;;;;;;;6.60;3.80;;;23.90;99.90;;;;;;5004595;28;20252;-80
2023/08/09 10:57:57;;;;;;;4.33;3.93;;;23.80;99.90;;;;;;5009448;28;20733;-80
2023/08/09 11:00:25;;;;;;;3.13;2.87;;;23.60;99.90;;;;;;5011998;28;20201;-80
2023/08/09 11:02:55;;;;;;;7.27;3.20;;;23.60;99.90;;;;;;4998936;28;20198;-79
2023/08/09 11:05:23;;;;;;;2.80;2.60;;;23.70;99.90;;;;;;5008767;28;20762;-79
2023/08/09 11:07:51;;;;;;;3.57;2.70;;;23.70;99.90;;;;;;5011428;28;20830;-79
2023/08/09 11:10:34;;;;;;;7.27;4.50;;;23.60;99.90;;;;;;5007638;28;20225;-79
2023/08/09 11:13:06;;;;;;;3.70;3.33;;;23.70;99.90;;;;;;5000990;28;20205;-78
2023/08/09 11:15:34;;;;;;;6.50;6.00;;;23.80;99.90;;;;;;5004056;28;20204;-78
2023/08/09 11:18:02;;;;;;;3.70;3.40;;;24.00;99.90;;;;;;5006231;28;20201;-79
2023/08/09 11:20:29;;;;;;;3.30;3.10;;;24.30;99.90;;;;;;5000896;28;20189;-79
2023/08/09 11:22:57;;;;;;;6.00;5.47;;;24.30;99.90;;;;;;5004561;28;20236;-79
2023/08/09 11:25:25;;;;;;;90.27;12.40;;;24.40;99.90;;;;;;5004885;28;20189;-79
2023/08/09 11:27:53;;;;;;;5.47;4.90;;;24.50;99.90;;;;;;5003688;28;20228;-78
2023/08/09 11:30:20;;;;;;;6.20;5.70;;;24.50;99.90;;;;;;5002376;28;20216;-82
2023/08/09 11:32:56;;;;;;;6.27;5.87;;;24.60;99.90;;;;;;4999142;28;20189;-79
2023/08/09 11:35:30;;;;;;;6.03;5.53;;;24.70;99.90;;;;;;5006758;28;20284;-78
2023/08/09 11:37:57;;;;;;;6.20;5.70;;;24.70;99.90;;;;;;4998804;28;20679;-84
2023/08/09 11:40:25;;;;;;;6.27;5.80;;;24.80;99.90;;;;;;5003246;28;20197;-78
2023/08/09 11:42:59;;;;;;;8.67;5.70;;;24.80;99.90;;;;;;5006625;28;20189;-79
2023/08/09 11:45:26;;;;;;;5.73;5.33;;;24.70;99.90;;;;;;5010717;28;20201;-79
2023/08/09 11:47:55;;;;;;;4.47;3.97;;;24.60;99.90;;;;;;4999248;28;20287;-80
2023/08/09 11:50:24;;;;;;;2.83;2.67;;;24.60;99.90;;;;;;5007904;28;20252;-79
2023/08/09 11:52:55;;;;;;;3.23;2.87;;;24.80;99.90;;;;;;5010975;28;20733;-77
2023/08/09 11:55:24;;;;;;;4.03;3.67;;;24.90;99.90;;;;;;5004898;28;20204;-79
2023/08/09 11:57:51;;;;;;;6.40;5.90;;;25.00;99.90;;;;;;4999491;28;20243;-78
2023/08/09 12:00:18;;;;;;;7.13;6.43;;;25.00;99.90;;;;;;5008558;28;20682;-79
2023/08/09 12:02:46;;;;;;;5.90;5.50;;;25.00;99.90;;;;;;5018848;28;20223;-81
2023/08/09 12:05:15;;;;;;;4.67;4.27;;;25.10;99.90;;;;;;5010326;28;20196;-79
2023/08/09 12:07:42;;;;;;;5.30;4.80;;;25.30;99.90;;;;;;5012913;28;20218;-79
2023/08/09 12:10:20;;;;;;;7.33;6.67;;;25.30;99.90;;;;;;4996206;28;20233;-80
2023/08/09 12:12:47;;;;;;;7.10;6.60;;;25.30;99.90;;;;;;5006872;28;20224;-83
2023/08/09 12:15:14;;;;;;;10.67;9.67;;;25.10;99.90;;;;;;5022411;28;20205;-83
2023/08/09 12:17:41;;;;;;;7.47;6.77;;;25.30;99.90;;;;;;4997378;28;20271;-83
2023/08/09 12:20:09;;;;;;;7.07;6.50;;;25.30;99.90;;;;;;5005965;28;20201;-83
2023/08/09 12:22:37;;;;;;;6.57;5.97;;;25.30;99.90;;;;;;5002238;28;20208;-82
2023/08/09 12:25:05;;;;;;;4.40;4.10;;;25.40;99.90;;;;;;5005817;28;20219;-83
2023/08/09 12:27:33;;;;;;;5.43;4.93;;;25.60;99.90;;;;;;5002681;28;20221;-83
2023/08/09 12:29:59;;;;;;;5.87;5.37;;;25.90;99.90;;;;;;5004035;28;20229;-81
2023/08/09 12:32:28;;;;;;;5.83;5.33;;;25.80;99.90;;;;;;4997041;28;20633;-82
2023/08/09 12:34:55;;;;;;;5.03;4.53;;;26.00;99.90;;;;;;5009631;28;20199;-83
2023/08/09 12:37:22;;;;;;;5.13;3.90;;;26.00;99.90;;;;;;5002917;28;20224;-82
2023/08/09 12:39:49;;;;;;;3.80;3.50;;;26.00;99.90;;;;;;5017547;28;20239;-83
2023/08/09 12:42:16;;;;;;;5.37;3.87;;;26.00;99.90;;;;;;5011741;28;20196;-82
2023/08/09 12:44:44;;;;;;;5.53;4.27;;;25.90;99.90;;;;;;5019477;28;20628;-84
2023/08/09 12:47:11;;;;;;;6.40;5.90;;;25.40;99.90;;;;;;5025891;28;20227;-82
2023/08/09 12:49:38;;;;;;;5.33;4.87;;;25.10;99.90;;;;;;5019751;28;20223;-82